Accueil
METAR-TAF:

METAR-TAF

Aéroports :

Anvik, Alaska, États-Unis

latitude: 62-38-54N, longitude: 160-11-23W, altitude: 94 m

Observation

Le bulletin a été fait il y a 35 minutes, à 00:56 UTC
Vent 5 kt de direction variable
Température 22°C
Humidité 41%
Pression 1010 hPa
Visibilité: 14.5 km
Nuages épars à une hauteur de 6000 ft

METAR: PANV 110056Z AUTO VRB05KT 9SM SCT060 22/08 A2983 RMK AO2 SLP152 T02220083 TSNO

Heure: 17:31 (01:31 UTC)


TAF: absent

Observations et prévisions météorologiques de plus de 4000 aéroports (messages METAR et TAF).

Les stations disponibles sont représentées par des disques jaunes et rouges sur la carte.

Passer la souris dessus pour voir le nom de la station.

Cliquer dessus pour voir les observations et prévisions météorologiques.

Pour changer de carte: cliquez sur les boutons verts avec une croix noire pour zoomer, sur le bouton vert avec un tiret pour effectuer un zoom arrière, ou sur les flèches vertes pour les cartes adjacentes.


METAR-TAF: